EXS2AP EGAA-GCTS
Flight info
| Callsign | EXS2AP |
|---|---|
| Flight time | N/A |
| Altitude | 34000 |
| Route | BELZU DCT DEGOS DCT TUGSI DCT RINUS DCT INRAD/M076F340 DCT OMOKO T16 EKROL/M076F350 T16 NAVIX/N0434F370 DCT LAPPA DCT FAGUT DCT ORTIS |
| Aircraft | B738/M-SDE2E3FGHIRWXY/LB1 |
Departure
| Time | N/A |
|---|---|
| Airport | Belfast International Airport (EGAA) |
Arrival
| Time | 2026-05-04 18:59 |
|---|---|
| Airport | Tenerife Sur Airport (GCTS) |
| Time | Latitude | Longitude | Altitude | Speed | Heading |
|---|---|---|---|---|---|
| 2026-05-04 18:25 | 30.33318 | -16.44715 | 35061 ft | 400 kts | 182° |
| 2026-05-04 18:25 | 30.30286 | -16.44408 | 35063 ft | 400 kts | 183° |
| 2026-05-04 18:25 | 30.24162 | -16.43790 | 35060 ft | 399 kts | 183° |
| 2026-05-04 18:26 | 30.18106 | -16.43179 | 35060 ft | 398 kts | 183° |
| 2026-05-04 18:26 | 30.12031 | -16.42569 | 35057 ft | 397 kts | 183° |
| 2026-05-04 18:27 | 30.06159 | -16.41981 | 35060 ft | 398 kts | 183° |
| 2026-05-04 18:27 | 30.00411 | -16.41404 | 35066 ft | 398 kts | 183° |
| 2026-05-04 18:28 | 29.94627 | -16.40823 | 35067 ft | 396 kts | 184° |
| 2026-05-04 18:28 | 29.88818 | -16.40243 | 35070 ft | 398 kts | 184° |
| 2026-05-04 18:29 | 29.83189 | -16.39676 | 35069 ft | 396 kts | 184° |
| 2026-05-04 18:29 | 29.77516 | -16.39110 | 35068 ft | 394 kts | 184° |
| 2026-05-04 18:30 | 29.68854 | -16.38249 | 35065 ft | 396 kts | 184° |
| 2026-05-04 18:31 | 29.63320 | -16.37973 | 35063 ft | 386 kts | 193° |
| 2026-05-04 18:31 | 29.60699 | -16.38450 | 35059 ft | 375 kts | 202° |
| 2026-05-04 18:31 | 29.58225 | -16.39410 | 35056 ft | 367 kts | 210° |
| 2026-05-04 18:32 | 29.53690 | -16.42345 | 35050 ft | 362 kts | 220° |
| 2026-05-04 18:32 | 29.49569 | -16.46091 | 35052 ft | 358 kts | 224° |
| 2026-05-04 18:33 | 29.45487 | -16.50045 | 35053 ft | 357 kts | 225° |
| 2026-05-04 18:33 | 29.41214 | -16.54130 | 35055 ft | 357 kts | 224° |
| 2026-05-04 18:34 | 29.36953 | -16.58159 | 35056 ft | 357 kts | 224° |
| 2026-05-04 18:34 | 29.32725 | -16.62133 | 35052 ft | 355 kts | 224° |
| 2026-05-04 18:35 | 29.28651 | -16.65957 | 35055 ft | 356 kts | 224° |
| 2026-05-04 18:35 | 29.24328 | -16.70007 | 35045 ft | 349 kts | 224° |
| 2026-05-04 18:36 | 29.20128 | -16.73937 | 35009 ft | 350 kts | 224° |
| 2026-05-04 18:36 | 29.15946 | -16.77859 | 34973 ft | 350 kts | 224° |
| 2026-05-04 18:36 | 29.13872 | -16.79792 | 34662 ft | 343 kts | 224° |
| 2026-05-04 18:37 | 29.11842 | -16.81686 | 34193 ft | 341 kts | 224° |
| 2026-05-04 18:37 | 29.09840 | -16.83557 | 33847 ft | 344 kts | 224° |
| 2026-05-04 18:37 | 29.07802 | -16.85462 | 33263 ft | 344 kts | 224° |
| 2026-05-04 18:37 | 29.05763 | -16.87366 | 32723 ft | 344 kts | 224° |
| 2026-05-04 18:38 | 29.03716 | -16.89277 | 32103 ft | 345 kts | 224° |
| 2026-05-04 18:38 | 29.01649 | -16.91204 | 31475 ft | 346 kts | 224° |
| 2026-05-04 18:38 | 28.99557 | -16.93152 | 30783 ft | 348 kts | 224° |
| 2026-05-04 18:38 | 28.97481 | -16.95082 | 30087 ft | 349 kts | 224° |
| 2026-05-04 18:39 | 28.95347 | -16.97068 | 29416 ft | 349 kts | 223° |
| 2026-05-04 18:39 | 28.93223 | -16.99042 | 28933 ft | 353 kts | 224° |
| 2026-05-04 18:39 | 28.90983 | -17.01131 | 28430 ft | 367 kts | 223° |
| 2026-05-04 18:39 | 28.88754 | -17.03206 | 27922 ft | 371 kts | 223° |
| 2026-05-04 18:40 | 28.86507 | -17.05289 | 27436 ft | 364 kts | 223° |
| 2026-05-04 18:40 | 28.84318 | -17.07313 | 26854 ft | 360 kts | 223° |
| 2026-05-04 18:40 | 28.82123 | -17.09344 | 26273 ft | 355 kts | 223° |
| 2026-05-04 18:40 | 28.79907 | -17.11394 | 25856 ft | 347 kts | 223° |
| 2026-05-04 18:41 | 28.77786 | -17.13358 | 25122 ft | 348 kts | 223° |
| 2026-05-04 18:41 | 28.75632 | -17.15352 | 24765 ft | 342 kts | 223° |
| 2026-05-04 18:41 | 28.73509 | -17.17320 | 24304 ft | 344 kts | 223° |
| 2026-05-04 18:41 | 28.71452 | -17.19226 | 23564 ft | 346 kts | 223° |
| 2026-05-04 18:42 | 28.69350 | -17.21167 | 23203 ft | 338 kts | 223° |
| 2026-05-04 18:42 | 28.67326 | -17.23035 | 22631 ft | 340 kts | 223° |
| 2026-05-04 18:42 | 28.65297 | -17.24909 | 22067 ft | 336 kts | 222° |
| 2026-05-04 18:42 | 28.63218 | -17.26826 | 21709 ft | 335 kts | 222° |
| 2026-05-04 18:43 | 28.61161 | -17.28725 | 21177 ft | 333 kts | 222° |
| 2026-05-04 18:43 | 28.59075 | -17.30648 | 20438 ft | 334 kts | 222° |
| 2026-05-04 18:43 | 28.57026 | -17.32532 | 20075 ft | 325 kts | 221° |
| 2026-05-04 18:43 | 28.54929 | -17.34309 | 19278 ft | 331 kts | 216° |
| 2026-05-04 18:44 | 28.52516 | -17.35613 | 18880 ft | 328 kts | 202° |
| 2026-05-04 18:44 | 28.50804 | -17.36138 | 18555 ft | 336 kts | 196° |
| 2026-05-04 18:44 | 28.47156 | -17.36563 | 17742 ft | 341 kts | 186° |
| 2026-05-04 18:44 | 28.44418 | -17.36277 | 17115 ft | 345 kts | 173° |
| 2026-05-04 18:45 | 28.41842 | -17.35367 | 16619 ft | 346 kts | 163° |
| 2026-05-04 18:45 | 28.39335 | -17.33942 | 16022 ft | 349 kts | 154° |
| 2026-05-04 18:45 | 28.37088 | -17.32017 | 15714 ft | 345 kts | 142° |
| 2026-05-04 18:45 | 28.35281 | -17.29675 | 15521 ft | 337 kts | 133° |
| 2026-05-04 18:46 | 28.33786 | -17.27136 | 15208 ft | 332 kts | 127° |
| 2026-05-04 18:46 | 28.32447 | -17.24563 | 14802 ft | 329 kts | 126° |
| 2026-05-04 18:46 | 28.31146 | -17.21979 | 14332 ft | 326 kts | 126° |
| 2026-05-04 18:46 | 28.29841 | -17.19400 | 13891 ft | 323 kts | 126° |
| 2026-05-04 18:47 | 28.28545 | -17.16876 | 13449 ft | 320 kts | 126° |
| 2026-05-04 18:47 | 28.27260 | -17.14402 | 12969 ft | 318 kts | 126° |
| 2026-05-04 18:47 | 28.25942 | -17.11907 | 12470 ft | 317 kts | 127° |
| 2026-05-04 18:47 | 28.24544 | -17.09532 | 12030 ft | 312 kts | 130° |
| 2026-05-04 18:48 | 28.23083 | -17.07212 | 11539 ft | 311 kts | 130° |
| 2026-05-04 18:48 | 28.21649 | -17.04942 | 11100 ft | 309 kts | 130° |
| 2026-05-04 18:48 | 28.20220 | -17.02643 | 10644 ft | 307 kts | 129° |
| 2026-05-04 18:48 | 28.18829 | -17.00378 | 10320 ft | 300 kts | 129° |
| 2026-05-04 18:49 | 28.17454 | -16.98197 | 10129 ft | 288 kts | 133° |
| 2026-05-04 18:49 | 28.15809 | -16.96502 | 9959 ft | 267 kts | 156° |
| 2026-05-04 18:49 | 28.13906 | -16.95611 | 9734 ft | 255 kts | 167° |
| 2026-05-04 18:49 | 28.11954 | -16.94884 | 9318 ft | 255 kts | 166° |
| 2026-05-04 18:50 | 28.10011 | -16.94090 | 8938 ft | 255 kts | 163° |
| 2026-05-04 18:50 | 28.08101 | -16.93247 | 8572 ft | 254 kts | 162° |
| 2026-05-04 18:50 | 28.06196 | -16.92390 | 8206 ft | 253 kts | 162° |
| 2026-05-04 18:50 | 28.04286 | -16.91599 | 7828 ft | 250 kts | 168° |
| 2026-05-04 18:51 | 28.02320 | -16.91521 | 7389 ft | 245 kts | 200° |
| 2026-05-04 18:51 | 28.00733 | -16.92638 | 6997 ft | 240 kts | 229° |
| 2026-05-04 18:51 | 27.99722 | -16.94401 | 6645 ft | 238 kts | 245° |
| 2026-05-04 18:51 | 27.98968 | -16.96361 | 6232 ft | 239 kts | 248° |
| 2026-05-04 18:52 | 27.98162 | -16.98190 | 5873 ft | 240 kts | 232° |
| 2026-05-04 18:52 | 27.96672 | -16.99434 | 5492 ft | 243 kts | 199° |
| 2026-05-04 18:52 | 27.94860 | -16.99561 | 5120 ft | 246 kts | 166° |
| 2026-05-04 18:52 | 27.93160 | -16.98757 | 4854 ft | 245 kts | 145° |
| 2026-05-04 18:53 | 27.91961 | -16.97112 | 4572 ft | 242 kts | 108° |
| 2026-05-04 18:53 | 27.91713 | -16.95065 | 4398 ft | 239 kts | 86° |
| 2026-05-04 18:53 | 27.92034 | -16.92935 | 4184 ft | 238 kts | 73° |
| 2026-05-04 18:53 | 27.92634 | -16.90913 | 3988 ft | 235 kts | 68° |
| 2026-05-04 18:54 | 27.93310 | -16.88957 | 3792 ft | 234 kts | 67° |
| 2026-05-04 18:54 | 27.93990 | -16.87034 | 3638 ft | 232 kts | 67° |
| 2026-05-04 18:54 | 27.94663 | -16.85122 | 3490 ft | 229 kts | 66° |
| 2026-05-04 18:54 | 27.95312 | -16.83276 | 3334 ft | 220 kts | 66° |
| 2026-05-04 18:55 | 27.95954 | -16.81453 | 3205 ft | 212 kts | 67° |
| 2026-05-04 18:55 | 27.97181 | -16.77974 | 2917 ft | 206 kts | 67° |
| 2026-05-04 18:55 | 27.97789 | -16.76245 | 2758 ft | 196 kts | 67° |
| 2026-05-04 18:56 | 27.98345 | -16.74660 | 2627 ft | 186 kts | 67° |
| 2026-05-04 18:56 | 27.98875 | -16.73156 | 2484 ft | 183 kts | 67° |
| 2026-05-04 18:56 | 27.99415 | -16.71617 | 2343 ft | 178 kts | 67° |
| 2026-05-04 18:56 | 27.99921 | -16.70170 | 2202 ft | 168 kts | 67° |
| 2026-05-04 18:57 | 28.00363 | -16.68911 | 2083 ft | 160 kts | 67° |
| 2026-05-04 18:57 | 28.00784 | -16.67708 | 1826 ft | 151 kts | 67° |
| 2026-05-04 18:57 | 28.01210 | -16.66492 | 1597 ft | 145 kts | 68° |
| 2026-05-04 18:57 | 28.01617 | -16.65334 | 1399 ft | 146 kts | 68° |
| 2026-05-04 18:58 | 28.02019 | -16.64183 | 1194 ft | 144 kts | 69° |
| 2026-05-04 18:58 | 28.02425 | -16.63023 | 992 ft | 146 kts | 69° |
| 2026-05-04 18:58 | 28.02831 | -16.61873 | 790 ft | 145 kts | 70° |
| 2026-05-04 18:58 | 28.03217 | -16.60709 | 566 ft | 142 kts | 70° |
| 2026-05-04 18:59 | 28.03630 | -16.59564 | 379 ft | 140 kts | 69° |
| 2026-05-04 18:59 | 28.04026 | -16.58458 | 210 ft | 135 kts | 70° |
| 2026-05-04 18:59 | 28.04363 | -16.57484 | 202 ft | 95 kts | 69° |
| 2026-05-04 18:59 | 28.04574 | -16.56967 | 206 ft | 40 kts | 46° |
| 2026-05-04 19:00 | 28.04722 | -16.56801 | 212 ft | 14 kts | 22° |
| 2026-05-04 19:00 | 28.04776 | -16.56862 | 215 ft | 11 kts | 258° |
| 2026-05-04 19:00 | 28.04746 | -16.56950 | 216 ft | 9 kts | 248° |
| 2026-05-04 19:00 | 28.04722 | -16.57017 | 218 ft | 7 kts | 248° |
| 2026-05-04 19:01 | 28.04691 | -16.57106 | 222 ft | 14 kts | 248° |
| 2026-05-04 19:01 | 28.04631 | -16.57277 | 215 ft | 25 kts | 248° |
| 2026-05-04 19:01 | 28.04564 | -16.57467 | 222 ft | 21 kts | 248° |
| 2026-05-04 19:01 | 28.04507 | -16.57632 | 224 ft | 18 kts | 249° |
| 2026-05-04 19:02 | 28.04454 | -16.57784 | 219 ft | 20 kts | 248° |
| 2026-05-04 19:02 | 28.04400 | -16.57935 | 216 ft | 13 kts | 249° |
| 2026-05-04 19:02 | 28.04400 | -16.57989 | 214 ft | 5 kts | 341° |
| 2026-05-04 19:02 | 28.04413 | -16.57994 | 215 ft | 0 kts | 342° |
| 2026-05-04 19:03 | 28.04430 | -16.58002 | 217 ft | 0 kts | 338° |
| 2026-05-04 19:03 | 28.04442 | -16.58007 | 218 ft | 1 kts | 339° |
| 2026-05-04 19:03 | 28.04448 | -16.58010 | 219 ft | 0 kts | 338° |